createdAt,value
2018-10-16T00:02:18.602Z,61.64
2018-10-16T00:04:47.814Z,61.26
2018-10-16T00:07:16.870Z,61.86
2018-10-16T00:09:45.935Z,62.63
2018-10-16T00:12:15.232Z,62.57
2018-10-16T00:14:44.339Z,63.39
2018-10-16T00:17:13.363Z,64.12
2018-10-16T00:19:42.723Z,64.71
2018-10-16T00:22:11.828Z,65.11
2018-10-16T00:24:40.840Z,65.23
2018-10-16T00:27:10.263Z,66.03
2018-10-16T00:29:39.519Z,66.56
2018-10-16T00:32:08.621Z,66.58
2018-10-16T00:34:37.655Z,68.03
2018-10-16T00:37:06.912Z,67.98
2018-10-16T00:39:35.816Z,68.42
2018-10-16T00:42:05.336Z,69.22
2018-10-16T00:44:34.588Z,69.41
2018-10-16T00:47:03.607Z,69.67
2018-10-16T00:49:33.162Z,69.95
2018-10-16T00:52:02.227Z,70.73
2018-10-16T00:54:31.375Z,70.82
2018-10-16T00:57:00.631Z,70.24
2018-10-16T00:59:29.718Z,71.11
2018-10-16T01:01:59.198Z,71.03
2018-10-16T01:04:28.310Z,70.86
2018-10-16T01:06:57.415Z,71.31
2018-10-16T01:09:26.546Z,71.63
2018-10-16T01:11:55.780Z,72.00
2018-10-16T01:14:24.992Z,71.84
2018-10-16T01:16:54.330Z,72.21
2018-10-16T01:19:23.654Z,72.55
2018-10-16T01:21:52.818Z,72.71
2018-10-16T01:24:22.267Z,73.88
2018-10-16T01:26:52.079Z,74.20
2018-10-16T01:29:21.135Z,74.17
2018-10-16T01:31:50.596Z,74.41
2018-10-16T01:34:19.699Z,74.40
2018-10-16T01:36:48.767Z,74.44
2018-10-16T01:39:18.036Z,74.21
2018-10-16T01:41:47.193Z,74.72
2018-10-16T01:44:16.271Z,74.55
2018-10-16T01:46:45.587Z,74.65
2018-10-16T01:49:14.718Z,75.02
2018-10-16T01:51:43.923Z,75.71
2018-10-16T01:54:13.091Z,76.01
2018-10-16T01:56:42.150Z,76.45
2018-10-16T01:59:11.212Z,76.17
2018-10-16T02:01:40.230Z,76.35
2018-10-16T02:04:09.313Z,77.00
2018-10-16T02:06:38.600Z,77.20
2018-10-16T02:09:10.421Z,77.00
2018-10-16T02:11:39.416Z,77.24
2018-10-16T02:14:08.645Z,76.68
2018-10-16T02:16:38.189Z,76.56
2018-10-16T02:19:07.273Z,77.13
2018-10-16T02:21:36.696Z,77.17
2018-10-16T02:24:06.014Z,77.26
2018-10-16T02:26:35.166Z,77.94
2018-10-16T02:29:04.366Z,78.36
2018-10-16T02:31:33.683Z,78.17
2018-10-16T02:34:02.866Z,78.05
2018-10-16T02:36:32.071Z,78.15
2018-10-16T02:39:01.591Z,78.46
2018-10-16T02:41:30.874Z,78.06
2018-10-16T02:44:00.731Z,78.54
2018-10-16T02:46:29.914Z,78.61
2018-10-16T02:48:59.104Z,78.82
2018-10-16T02:51:28.190Z,78.66
2018-10-16T02:53:57.367Z,79.03
2018-10-16T02:56:26.450Z,79.73
2018-10-16T02:58:55.680Z,79.31
2018-10-16T03:01:25.086Z,79.99
2018-10-16T03:03:54.292Z,79.89
2018-10-16T03:06:23.583Z,79.61
2018-10-16T03:08:53.218Z,80.00
2018-10-16T03:11:22.621Z,79.57
2018-10-16T03:13:51.677Z,79.53
2018-10-16T03:16:21.120Z,79.65
2018-10-16T03:18:50.318Z,79.29
2018-10-16T03:21:19.351Z,79.55
2018-10-16T03:23:48.684Z,79.45
2018-10-16T03:26:17.851Z,79.33
2018-10-16T03:28:47.139Z,79.57
2018-10-16T03:31:16.378Z,79.56
2018-10-16T03:33:45.642Z,79.87
2018-10-16T03:36:14.747Z,80.20
2018-10-16T03:38:43.916Z,80.15
2018-10-16T03:41:13.148Z,80.49
2018-10-16T03:43:42.050Z,81.17
2018-10-16T03:46:11.458Z,81.02
2018-10-16T03:48:40.726Z,80.95
2018-10-16T03:51:09.838Z,80.62
2018-10-16T03:53:39.291Z,80.68
2018-10-16T03:56:08.506Z,80.70
2018-10-16T03:58:37.752Z,80.86
2018-10-16T04:01:07.138Z,80.50
2018-10-16T04:03:36.147Z,80.41
2018-10-16T04:06:05.235Z,80.50
2018-10-16T04:08:34.451Z,79.70
2018-10-16T04:11:03.586Z,79.59
2018-10-16T04:13:32.635Z,79.55
2018-10-16T04:16:01.834Z,79.66
2018-10-16T04:18:30.903Z,80.49
2018-10-16T04:20:59.959Z,80.50
2018-10-16T04:23:29.147Z,80.86
2018-10-16T04:25:58.419Z,81.43
2018-10-16T04:28:27.731Z,81.00
2018-10-16T04:30:57.244Z,81.43
2018-10-16T04:33:26.411Z,81.97
2018-10-16T04:35:55.511Z,82.26
2018-10-16T04:38:24.647Z,82.64
2018-10-16T04:40:53.774Z,82.41
2018-10-16T04:43:23.042Z,83.16
2018-10-16T04:45:52.236Z,83.35
2018-10-16T04:48:21.617Z,83.38
2018-10-16T04:50:50.919Z,83.21
2018-10-16T04:53:20.015Z,83.23
2018-10-16T04:55:49.019Z,82.26
2018-10-16T04:58:18.211Z,81.94
2018-10-16T05:00:47.602Z,80.71
2018-10-16T05:03:16.812Z,79.90
2018-10-16T05:05:46.017Z,79.10
2018-10-16T05:08:15.427Z,77.39
2018-10-16T05:10:44.719Z,74.33
2018-10-16T05:13:14.018Z,72.55
2018-10-16T05:15:43.503Z,70.70
2018-10-16T05:18:12.500Z,69.74
2018-10-16T05:20:41.563Z,67.54
2018-10-16T05:23:10.927Z,65.25
2018-10-16T05:25:39.939Z,63.37
2018-10-16T05:28:09.112Z,61.43
2018-10-16T05:30:38.431Z,59.97
2018-10-16T05:33:07.515Z,58.52
2018-10-16T05:35:36.599Z,57.45
2018-10-16T05:38:05.662Z,55.79
2018-10-16T05:40:34.755Z,54.02
2018-10-16T05:43:04.092Z,53.33
2018-10-16T05:45:35.059Z,51.43
2018-10-16T05:48:04.184Z,50.38
2018-10-16T05:50:33.395Z,49.19
2018-10-16T05:53:02.736Z,48.53
2018-10-16T05:55:32.059Z,47.48
2018-10-16T05:58:01.522Z,46.24
2018-10-16T06:00:40.385Z,45.49
2018-10-16T06:03:09.770Z,44.94
2018-10-16T06:05:39.388Z,44.18
2018-10-16T06:08:08.792Z,43.54
2018-10-16T06:10:38.315Z,43.15
2018-10-16T06:13:07.482Z,42.83
2018-10-16T06:15:36.504Z,42.82
2018-10-16T06:18:05.636Z,42.93
2018-10-16T06:20:35.175Z,42.29
2018-10-16T06:23:04.728Z,42.57
2018-10-16T06:25:33.903Z,43.10
2018-10-16T06:28:20.661Z,42.63
2018-10-16T06:30:49.735Z,42.30
2018-10-16T06:33:21.753Z,41.35
2018-10-16T06:35:50.974Z,40.95
2018-10-16T06:38:20.072Z,41.79
2018-10-16T06:40:49.213Z,42.87
2018-10-16T06:43:18.193Z,42.54
2018-10-16T06:45:47.409Z,44.21
2018-10-16T06:48:16.945Z,43.95
2018-10-16T06:50:45.867Z,42.99
2018-10-16T06:53:14.995Z,44.30
2018-10-16T06:55:44.278Z,44.20
2018-10-16T06:58:13.368Z,44.31
2018-10-16T07:00:42.509Z,45.12
2018-10-16T07:03:11.682Z,44.65
2018-10-16T07:05:40.860Z,44.04
2018-10-16T07:08:10.155Z,44.40
2018-10-16T07:10:39.578Z,45.36
2018-10-16T07:13:08.763Z,45.21
2018-10-16T07:15:37.962Z,46.66
2018-10-16T07:18:07.296Z,47.05
2018-10-16T07:20:36.591Z,44.62
2018-10-16T07:23:05.575Z,45.59
2018-10-16T07:25:35.038Z,46.99
2018-10-16T07:28:04.404Z,47.04
2018-10-16T07:30:33.577Z,46.29
2018-10-16T07:33:02.948Z,45.63
2018-10-16T07:35:32.068Z,43.74
2018-10-16T07:38:01.422Z,44.67
2018-10-16T07:40:32.500Z,44.46
2018-10-16T07:43:01.656Z,44.65
2018-10-16T07:45:30.731Z,45.61
2018-10-16T07:48:00.500Z,45.62
2018-10-16T07:50:29.616Z,47.05
2018-10-16T07:52:58.543Z,45.81
2018-10-16T07:55:27.948Z,44.06
2018-10-16T07:57:57.116Z,45.88
2018-10-16T08:00:26.191Z,44.63
2018-10-16T08:02:55.626Z,44.78
2018-10-16T08:05:24.912Z,45.90
2018-10-16T08:07:54.055Z,47.05
2018-10-16T08:10:23.438Z,49.19
2018-10-16T08:12:52.468Z,48.10
2018-10-16T08:15:21.611Z,45.75
2018-10-16T08:17:51.051Z,44.83
2018-10-16T08:20:20.155Z,43.99
2018-10-16T08:22:49.287Z,44.74
2018-10-16T08:25:18.359Z,44.88
2018-10-16T08:27:47.475Z,46.38
2018-10-16T08:30:16.501Z,46.34
2018-10-16T08:32:45.803Z,45.67
2018-10-16T08:35:14.983Z,46.43
2018-10-16T08:38:27.870Z,45.07
2018-10-16T08:40:58.004Z,45.88
2018-10-16T08:43:44.691Z,46.35
2018-10-16T08:46:24.497Z,46.47
2018-10-16T08:49:04.951Z,46.50
2018-10-16T08:51:47.103Z,45.83
2018-10-16T08:54:16.375Z,46.68
2018-10-16T08:56:45.645Z,46.59
2018-10-16T08:59:15.815Z,47.91
2018-10-16T09:01:45.251Z,47.08
2018-10-16T09:04:14.712Z,47.24
2018-10-16T09:06:44.052Z,46.60
2018-10-16T09:09:15.036Z,46.78
2018-10-16T09:11:45.258Z,44.23
2018-10-16T09:14:14.895Z,44.70
2018-10-16T09:16:44.511Z,45.05
2018-10-16T09:19:13.681Z,43.74
2018-10-16T09:21:42.863Z,44.26
2018-10-16T09:24:12.205Z,43.47
2018-10-16T09:26:41.923Z,43.71
2018-10-16T09:29:10.983Z,42.08
2018-10-16T09:31:40.319Z,41.71
2018-10-16T09:34:09.495Z,41.40
2018-10-16T09:36:38.518Z,41.47
2018-10-16T09:39:10.497Z,39.58
2018-10-16T09:41:39.738Z,40.18
2018-10-16T09:44:09.027Z,36.48
2018-10-16T09:46:38.637Z,38.91
2018-10-16T09:49:07.807Z,37.81
2018-10-16T09:51:36.846Z,37.54
2018-10-16T09:54:06.283Z,36.35
2018-10-16T09:56:35.860Z,36.58
2018-10-16T09:59:05.151Z,35.73
2018-10-16T10:01:39.542Z,34.74
2018-10-16T10:04:08.663Z,34.69
2018-10-16T10:06:37.683Z,34.51
2018-10-16T10:09:10.295Z,34.77
2018-10-16T10:11:39.355Z,34.72
2018-10-16T10:14:08.450Z,33.45
2018-10-16T10:16:38.151Z,32.97
2018-10-16T10:19:07.423Z,31.76
2018-10-16T10:21:36.767Z,32.25
2018-10-16T10:24:06.337Z,31.90
2018-10-16T10:26:35.347Z,31.02
2018-10-16T10:29:04.439Z,30.52
2018-10-16T10:31:34.004Z,31.64
2018-10-16T10:34:03.179Z,32.27
2018-10-16T10:36:32.379Z,32.31
2018-10-16T10:39:01.913Z,32.77
2018-10-16T10:41:31.083Z,31.42
2018-10-16T10:44:00.075Z,31.60
2018-10-16T10:46:29.356Z,29.65
2018-10-16T10:48:58.370Z,29.38
2018-10-16T10:51:27.576Z,30.45
2018-10-16T10:53:56.787Z,30.01
2018-10-16T10:56:26.002Z,30.30
2018-10-16T10:58:55.264Z,28.97
2018-10-16T11:01:24.780Z,29.38
2018-10-16T11:03:53.965Z,28.76
2018-10-16T11:06:23.174Z,28.23
2018-10-16T11:08:52.652Z,27.50
2018-10-16T11:11:21.781Z,27.19
2018-10-16T11:13:50.773Z,26.56
2018-10-16T11:16:20.491Z,26.01
2018-10-16T11:18:49.584Z,26.50
2018-10-16T11:21:18.772Z,26.49
2018-10-16T11:23:48.107Z,26.49
2018-10-16T11:26:17.895Z,27.49
2018-10-16T11:28:46.928Z,27.52
2018-10-16T11:31:16.484Z,26.94
2018-10-16T11:33:45.780Z,26.54
2018-10-16T11:36:14.799Z,26.47
2018-10-16T11:38:44.027Z,26.60
2018-10-16T11:41:13.107Z,27.15
2018-10-16T11:43:42.238Z,26.86
2018-10-16T11:46:11.734Z,26.41
2018-10-16T11:48:40.968Z,26.08
2018-10-16T11:51:10.271Z,26.06
2018-10-16T11:53:39.718Z,25.44
2018-10-16T11:56:08.938Z,25.70
2018-10-16T11:58:37.935Z,26.30
2018-10-16T12:01:06.970Z,25.59
2018-10-16T12:03:36.093Z,26.08
2018-10-16T12:06:05.664Z,25.96
2018-10-16T12:08:35.014Z,25.66
2018-10-16T12:11:04.192Z,26.29
2018-10-16T12:13:33.490Z,26.08
2018-10-16T12:16:02.829Z,26.15
2018-10-16T12:18:37.063Z,26.04
2018-10-16T12:21:25.879Z,25.76
2018-10-16T12:23:54.912Z,25.48
2018-10-16T12:26:24.039Z,25.44
2018-10-16T12:28:53.368Z,25.07
2018-10-16T12:31:22.571Z,24.55
2018-10-16T12:33:51.673Z,24.50
2018-10-16T12:36:21.130Z,24.35
2018-10-16T12:38:50.222Z,23.53
2018-10-16T12:41:19.346Z,23.77
2018-10-16T12:43:48.992Z,23.67
2018-10-16T12:46:18.182Z,23.44
2018-10-16T12:48:47.447Z,23.09
2018-10-16T12:51:16.631Z,22.98
2018-10-16T12:53:45.621Z,23.04
2018-10-16T12:56:14.902Z,23.23
2018-10-16T12:58:44.082Z,23.57
2018-10-16T13:01:13.783Z,22.91
2018-10-16T13:03:43.113Z,23.58
2018-10-16T13:06:12.079Z,23.66
2018-10-16T13:08:41.295Z,23.79
2018-10-16T13:11:10.480Z,23.06
2018-10-16T13:13:40.000Z,22.95
2018-10-16T13:16:09.256Z,23.27
2018-10-16T13:18:38.459Z,22.96
2018-10-16T13:21:07.558Z,23.07
2018-10-16T13:23:36.905Z,22.86
2018-10-16T13:26:06.126Z,23.31
2018-10-16T13:28:36.556Z,23.00
2018-10-16T13:31:05.711Z,23.67
2018-10-16T13:33:34.895Z,26.93
2018-10-16T13:36:04.413Z,28.05
2018-10-16T13:38:33.506Z,28.92
2018-10-16T13:41:03.408Z,29.25
2018-10-16T13:43:32.684Z,29.72
2018-10-16T13:46:01.876Z,29.36
2018-10-16T13:48:31.131Z,29.00
2018-10-16T13:51:00.564Z,29.21
2018-10-16T13:53:29.643Z,29.66
2018-10-16T13:55:58.738Z,29.48
2018-10-16T13:58:28.347Z,29.75
2018-10-16T14:00:57.636Z,30.42
2018-10-16T14:03:26.863Z,29.83
2018-10-16T14:05:56.307Z,29.79
2018-10-16T14:08:25.428Z,30.03
2018-10-16T14:10:54.422Z,30.44
2018-10-16T14:13:23.534Z,30.50
2018-10-16T14:15:53.283Z,30.59
2018-10-16T14:18:22.960Z,30.89
2018-10-16T14:20:51.979Z,31.08
2018-10-16T14:23:21.282Z,30.46
2018-10-16T14:25:50.440Z,30.67
2018-10-16T14:28:19.791Z,30.98
2018-10-16T14:30:48.947Z,31.34
2018-10-16T14:33:18.265Z,31.16
2018-10-16T14:35:47.591Z,31.21
2018-10-16T14:38:16.890Z,31.50
2018-10-16T14:40:45.946Z,31.72
2018-10-16T14:43:15.067Z,31.86
2018-10-16T14:45:44.142Z,31.85
2018-10-16T14:48:13.406Z,31.80
2018-10-16T14:50:42.871Z,32.48
2018-10-16T14:53:12.160Z,32.62
2018-10-16T14:55:41.351Z,33.07
2018-10-16T14:58:10.578Z,32.72
2018-10-16T15:00:39.727Z,32.51
2018-10-16T15:03:08.830Z,32.91
2018-10-16T15:05:38.246Z,33.39
2018-10-16T15:08:07.256Z,33.79
2018-10-16T15:10:36.649Z,34.23
2018-10-16T15:13:06.091Z,33.96
2018-10-16T15:15:35.324Z,34.51
2018-10-16T15:18:04.451Z,34.53
2018-10-16T15:20:33.734Z,35.24
2018-10-16T15:23:03.020Z,35.23
2018-10-16T15:25:32.143Z,35.26
2018-10-16T15:28:01.551Z,35.44
2018-10-16T15:30:30.562Z,36.15
2018-10-16T15:32:59.743Z,36.01
2018-10-16T15:35:29.511Z,36.39
2018-10-16T15:37:58.802Z,36.26
2018-10-16T15:40:28.078Z,36.56
2018-10-16T15:42:57.611Z,36.80
2018-10-16T15:45:26.767Z,37.47
2018-10-16T15:47:55.950Z,37.21
2018-10-16T15:50:25.095Z,37.99
2018-10-16T15:52:53.986Z,38.22
2018-10-16T15:55:23.262Z,38.13
2018-10-16T15:57:52.620Z,38.17
2018-10-16T16:00:21.864Z,38.61
2018-10-16T16:02:51.089Z,38.97
2018-10-16T16:05:20.300Z,39.34
2018-10-16T16:07:49.465Z,39.14
2018-10-16T16:10:18.461Z,39.58
2018-10-16T16:12:47.615Z,39.08
2018-10-16T16:15:16.646Z,39.65
2018-10-16T16:17:45.666Z,39.64
2018-10-16T16:20:16.041Z,39.58
2018-10-16T16:22:45.261Z,40.18
2018-10-16T16:25:15.263Z,40.18
2018-10-16T16:27:44.726Z,40.39
2018-10-16T16:30:15.677Z,40.51
2018-10-16T16:32:44.990Z,40.80
2018-10-16T16:35:14.067Z,40.74
2018-10-16T16:37:43.129Z,41.37
2018-10-16T16:40:13.953Z,41.38
2018-10-16T16:42:43.267Z,41.77
2018-10-16T16:45:12.804Z,41.77
2018-10-16T16:47:42.206Z,41.51
2018-10-16T16:50:12.252Z,41.83
2018-10-16T16:52:41.699Z,42.04
2018-10-16T16:55:12.743Z,42.09
2018-10-16T16:57:42.961Z,42.53
2018-10-16T17:00:13.446Z,42.39
2018-10-16T17:02:43.878Z,42.71
2018-10-16T17:05:13.735Z,42.56
2018-10-16T17:07:43.487Z,42.96
2018-10-16T17:10:12.592Z,42.70
2018-10-16T17:12:42.090Z,42.84
2018-10-16T17:15:13.239Z,43.39
2018-10-16T17:17:42.448Z,43.04
2018-10-16T17:20:12.291Z,43.74
2018-10-16T17:22:41.580Z,44.07
2018-10-16T17:25:12.677Z,44.13
2018-10-16T17:27:42.064Z,44.02
2018-10-16T17:30:13.140Z,44.52
2018-10-16T17:32:42.538Z,44.38
2018-10-16T17:35:12.424Z,44.12
2018-10-16T17:37:42.027Z,44.25
2018-10-16T17:40:13.326Z,44.32
2018-10-16T17:42:42.359Z,44.83
2018-10-16T17:45:12.679Z,45.23
2018-10-16T17:47:42.080Z,45.02
2018-10-16T17:50:12.987Z,44.76
2018-10-16T17:52:42.068Z,45.41
2018-10-16T17:55:12.208Z,45.77
2018-10-16T17:57:41.392Z,45.79
2018-10-16T18:00:14.015Z,45.97
2018-10-16T18:02:43.647Z,46.20
2018-10-16T18:05:13.094Z,46.19
2018-10-16T18:07:42.889Z,46.53
2018-10-16T18:10:12.054Z,46.66
2018-10-16T18:12:40.870Z,47.60
2018-10-16T18:15:11.819Z,47.60
2018-10-16T18:17:41.408Z,47.73
2018-10-16T18:20:12.399Z,48.24
2018-10-16T18:22:41.385Z,48.34
2018-10-16T18:25:10.948Z,48.75
2018-10-16T18:27:39.962Z,49.56
2018-10-16T18:30:09.861Z,49.84
2018-10-16T18:32:38.995Z,50.07
2018-10-16T18:35:08.443Z,50.01
2018-10-16T18:37:37.531Z,50.24
2018-10-16T18:40:08.435Z,50.53
2018-10-16T18:42:37.980Z,50.33
2018-10-16T18:45:07.788Z,50.51
2018-10-16T18:47:36.621Z,50.94
2018-10-16T18:50:07.220Z,50.89
2018-10-16T18:52:35.967Z,51.17
2018-10-16T18:55:05.502Z,51.88
2018-10-16T18:57:34.511Z,52.05
2018-10-16T19:00:03.485Z,52.00
2018-10-16T19:02:32.718Z,52.20
2018-10-16T19:05:01.551Z,52.45
2018-10-16T19:07:30.342Z,52.47
2018-10-16T19:09:59.270Z,52.67
2018-10-16T19:12:28.663Z,52.81
2018-10-16T19:14:57.653Z,52.79
2018-10-16T19:17:26.722Z,53.68
2018-10-16T19:19:56.105Z,53.81
2018-10-16T19:22:25.068Z,54.15
2018-10-16T19:24:53.979Z,53.70
2018-10-16T19:27:23.676Z,53.64
2018-10-16T19:29:52.627Z,53.25
2018-10-16T19:32:21.497Z,52.91
2018-10-16T19:34:51.472Z,53.02
2018-10-16T19:37:20.563Z,53.09
2018-10-16T19:39:56.576Z,52.93
2018-10-16T19:42:25.542Z,52.85
2018-10-16T19:44:54.578Z,53.00
2018-10-16T19:47:23.949Z,53.59
2018-10-16T19:49:53.014Z,53.76
2018-10-16T19:52:21.983Z,54.09
2018-10-16T19:54:51.015Z,54.19
2018-10-16T19:57:20.024Z,54.53
2018-10-16T19:59:49.126Z,54.86
2018-10-16T20:02:18.591Z,54.59
2018-10-16T20:04:47.524Z,54.45
2018-10-16T20:07:16.614Z,54.67
2018-10-16T20:09:46.104Z,54.94
2018-10-16T20:12:15.017Z,55.00
2018-10-16T20:14:43.856Z,55.60
2018-10-16T20:17:13.157Z,55.80
2018-10-16T20:19:42.678Z,55.74
2018-10-16T20:22:12.647Z,56.10
2018-10-16T20:24:41.695Z,56.45
2018-10-16T20:27:11.699Z,56.52
2018-10-16T20:29:40.878Z,56.91
2018-10-16T20:32:11.063Z,56.56
2018-10-16T20:34:40.030Z,56.79
2018-10-16T20:37:09.030Z,57.25
2018-10-16T20:39:38.292Z,57.22
2018-10-16T20:42:08.121Z,57.98
2018-10-16T20:44:37.343Z,58.20
2018-10-16T20:47:06.504Z,59.51
2018-10-16T20:49:35.563Z,59.58
2018-10-16T20:52:04.423Z,60.33
2018-10-16T20:54:33.780Z,60.41
2018-10-16T20:57:02.643Z,60.75
2018-10-16T20:59:31.645Z,61.76
2018-10-16T21:02:00.963Z,61.78
2018-10-16T21:04:29.967Z,62.55
2018-10-16T21:06:59.242Z,62.39
2018-10-16T21:09:28.314Z,62.94
2018-10-16T21:11:57.230Z,63.16
2018-10-16T21:14:27.139Z,63.43
2018-10-16T21:16:56.198Z,63.86
2018-10-16T21:19:25.404Z,63.77
2018-10-16T21:21:54.362Z,64.47
2018-10-16T21:24:23.427Z,64.40
2018-10-16T21:27:01.659Z,64.15
2018-10-16T21:29:31.420Z,64.81
2018-10-16T21:32:06.693Z,64.96
2018-10-16T21:34:38.674Z,65.14
2018-10-16T21:37:07.695Z,65.99
2018-10-16T21:39:36.732Z,66.42
2018-10-16T21:42:07.376Z,65.98
2018-10-16T21:44:36.413Z,65.81
2018-10-16T21:47:05.483Z,65.62
2018-10-16T21:49:36.327Z,65.47
2018-10-16T21:52:05.347Z,65.61
2018-10-16T21:54:34.373Z,65.56
2018-10-16T21:57:03.583Z,65.56
2018-10-16T21:59:33.317Z,65.00
2018-10-16T22:02:07.458Z,64.57
2018-10-16T22:04:36.279Z,64.76
2018-10-16T22:07:05.452Z,65.12
2018-10-16T22:09:34.602Z,65.15
2018-10-16T22:12:03.982Z,65.83
2018-10-16T22:14:33.010Z,66.60
2018-10-16T22:17:02.354Z,66.77
2018-10-16T22:19:35.438Z,67.23
2018-10-16T22:22:05.924Z,67.18
2018-10-16T22:24:35.211Z,67.38
2018-10-16T22:27:03.941Z,67.58
2018-10-16T22:29:33.190Z,67.87
2018-10-16T22:32:02.286Z,68.09
2018-10-16T22:34:31.150Z,69.03
2018-10-16T22:37:00.444Z,69.18
2018-10-16T22:39:29.573Z,69.22
2018-10-16T22:41:58.546Z,69.16
2018-10-16T22:44:27.896Z,69.11
2018-10-16T22:46:56.735Z,69.57
2018-10-16T22:49:25.665Z,69.63
2018-10-16T22:51:55.085Z,69.77
2018-10-16T22:54:27.320Z,70.17
2018-10-16T22:56:56.408Z,70.31
2018-10-16T22:59:25.694Z,70.67
2018-10-16T23:01:55.020Z,70.54
2018-10-16T23:04:24.474Z,70.75
2018-10-16T23:06:53.304Z,71.22
2018-10-16T23:09:22.330Z,71.26
2018-10-16T23:11:52.155Z,71.29
2018-10-16T23:14:21.114Z,71.21
2018-10-16T23:16:49.906Z,71.45
2018-10-16T23:19:19.482Z,71.79
2018-10-16T23:21:48.418Z,71.92
2018-10-16T23:24:17.527Z,71.39
2018-10-16T23:26:47.350Z,71.64
2018-10-16T23:29:16.507Z,71.28
2018-10-16T23:31:45.267Z,71.51
2018-10-16T23:34:14.578Z,71.73
2018-10-16T23:36:44.230Z,72.78
2018-10-16T23:39:14.943Z,72.92
2018-10-16T23:41:44.584Z,73.69
2018-10-16T23:44:13.475Z,73.69
2018-10-16T23:46:42.680Z,73.29
2018-10-16T23:49:11.581Z,73.38
2018-10-16T23:51:40.834Z,73.96
2018-10-16T23:54:09.837Z,74.57
2018-10-16T23:56:38.879Z,74.13
2018-10-16T23:59:07.867Z,74.30
